Belo Horizonte, Brazil

11:31 PM BRST on November 27, 2014 (GMT -0200)
Tancredo Neves International | Change Station
CLOSE
Current Station
Airport
Location: Belo Horizonte,
Elevation: 2713 ft
Nearby Weather Stations

Elev 2713 ft 19.64 °S, 43.97 °W | Updated 31 minutes ago

Mostly Cloudy
Mostly Cloudy
72 °F
Feels Like 72 °F
N
5
Wind Variable Wind from WSW

Today
High -- | Low -- °F
--% Chance of Precip.
Yesterday
High -- | Low -- °F
Precip. -- in
6:07 AM 7:19 PM
Waxing Crescent, 35% visible
Pressure 30.04 in
Visibility 6.2 miles
Clouds Scattered Clouds 2000 ft
Mostly Cloudy 10000 ft
Dew Point 66 °F
Humidity 83%
Rainfall 0.00 in
Snow Depth Not available.
UV 0 out of 12
Pollen Not available.
Air Quality Not available.
Flu Activity Not available.
METAR SBCF 280100Z 24004KT 9999 SCT020 BKN100 22/19 Q1017

More Conditions Fewer Conditions

Pressure 30.04 in
Visibility 6.2 miles
Clouds Scattered Clouds 2000 ft
Mostly Cloudy 10000 ft
Dew Point 66 °F
Humidity 83%
Rainfall 0.00 in
Snow Depth Not available.
UV 0 out of 12
Pollen Not available.
Air Quality Not available.
Flu Activity Not available.
METAR SBCF 280100Z 24004KT 9999 SCT020 BKN100 22/19 Q1017

More Conditions Fewer Conditions

10-Day Weather Forecast

Almanac

Astronomy

Nov. 27, 2014 Rise Set
Actual Time
Civil Twilight
Nautical Twilight
Astronomical Twilight
Moon
Length of Visible Light
Length of Day
Tomorrow will be .
, % of the Moon is Illuminated

Today's Extremes

Country Highs Country Lows

Community

WunderPhotos

Upload Photos

1,774,152 photos uploaded!

WunderBlogs® & News

Nearby

Air Quality

  Air Quality AQ Index Pollutant
Not available.

Snow Depth

Station Depth Elevation

Earthquake Activity

City Distance Mag. Time & Date
Minimum magnitude displayed is 2.5.

Coastal Water Temperatures

Place Temperature

Nearby Weather Stations